Terminal Aerodrome Forecast
Issued by NWS

Home | Current Version | Previous Version | Text Only | Print | Product List | Glossary On
Versions: 1 2 3 4 5 6 7 8 9 10 11 12 13 14 15 16
000
FTUS43 KDTX 281120
TAFMBS
TAF
KMBS 281120Z 2812/2912 22006KT P6SM SKC
     FM281300 23010KT P6SM SCT200
     FM281600 20014G22KT P6SM SCT090 OVC150
     FM282200 18012KT P6SM -SHRA SCT060 OVC080
     FM290300 19012KT P6SM OVC080 WS015/26045KT PROB30 2903/2907 6SM
      SHRA OVC050=

USA.gov is the U.S. government's official web portal to all federal, state and local government web resources and services.